sensor_id;sensor_type;location;lat;lon;timestamp;pressure;altitude;pressure_sealevel;temperature;humidity
64115;BME280;62188;35.640;139.748;2023-07-13T00:00:13;100537.14;;;32.05;38.87
64115;BME280;62188;35.640;139.748;2023-07-13T00:02:37;100532.53;;;32.25;38.65
64115;BME280;62188;35.640;139.748;2023-07-13T00:05:02;100531.20;;;32.09;38.77
64115;BME280;62188;35.640;139.748;2023-07-13T00:07:27;100526.27;;;32.09;38.43
64115;BME280;62188;35.640;139.748;2023-07-13T00:09:53;100523.07;;;32.11;38.48
64115;BME280;62188;35.640;139.748;2023-07-13T00:12:24;100512.96;;;32.11;38.41
64115;BME280;62188;35.640;139.748;2023-07-13T00:14:42;100510.74;;;32.38;38.21
64115;BME280;62188;35.640;139.748;2023-07-13T00:17:08;100506.30;;;32.19;38.23
64115;BME280;62188;35.640;139.748;2023-07-13T00:19:33;100503.05;;;32.27;38.07
64115;BME280;62188;35.640;139.748;2023-07-13T00:21:59;100502.28;;;31.97;37.93
64115;BME280;62188;35.640;139.748;2023-07-13T00:24:25;100496.69;;;32.19;38.05
64115;BME280;62188;35.640;139.748;2023-07-13T00:26:51;100503.95;;;32.12;37.81
64115;BME280;62188;35.640;139.748;2023-07-13T00:29:16;100511.20;;;32.14;37.86
64115;BME280;62188;35.640;139.748;2023-07-13T00:31:41;100506.63;;;32.21;38.18
64115;BME280;62188;35.640;139.748;2023-07-13T00:34:06;100486.24;;;32.55;38.32
64115;BME280;62188;35.640;139.748;2023-07-13T00:36:32;100462.94;;;32.30;37.66
64115;BME280;62188;35.640;139.748;2023-07-13T00:38:57;100451.82;;;32.49;37.82
64115;BME280;62188;35.640;139.748;2023-07-13T00:41:22;100449.32;;;32.23;37.87
64115;BME280;62188;35.640;139.748;2023-07-13T00:43:48;100443.02;;;32.04;37.91
64115;BME280;62188;35.640;139.748;2023-07-13T00:46:24;100458.51;;;32.37;38.02
64115;BME280;62188;35.640;139.748;2023-07-13T00:48:39;100467.25;;;32.39;37.93
64115;BME280;62188;35.640;139.748;2023-07-13T00:51:03;100464.89;;;32.45;38.05
64115;BME280;62188;35.640;139.748;2023-07-13T00:53:30;100465.58;;;32.48;38.10
64115;BME280;62188;35.640;139.748;2023-07-13T00:55:55;100472.23;;;32.23;38.12
64115;BME280;62188;35.640;139.748;2023-07-13T00:58:20;100478.46;;;32.85;38.13
64115;BME280;62188;35.640;139.748;2023-07-13T01:00:47;100481.11;;;32.59;38.00
64115;BME280;62188;35.640;139.748;2023-07-13T01:03:11;100475.67;;;32.58;38.17
64115;BME280;62188;35.640;139.748;2023-07-13T01:05:36;100474.97;;;32.67;38.25
64115;BME280;62188;35.640;139.748;2023-07-13T01:08:03;100475.30;;;32.77;38.37
64115;BME280;62188;35.640;139.748;2023-07-13T01:10:27;100475.37;;;32.89;38.23
64115;BME280;62188;35.640;139.748;2023-07-13T01:12:52;100479.30;;;32.49;38.21
64115;BME280;62188;35.640;139.748;2023-07-13T01:15:34;100481.25;;;32.84;38.21
64115;BME280;62188;35.640;139.748;2023-07-13T01:17:43;100475.66;;;33.22;37.91
64115;BME280;62188;35.640;139.748;2023-07-13T01:20:09;100471.54;;;33.10;37.75
64115;BME280;62188;35.640;139.748;2023-07-13T01:22:33;100466.26;;;33.35;37.52
64115;BME280;62188;35.640;139.748;2023-07-13T01:24:58;100463.86;;;33.37;37.27
64115;BME280;62188;35.640;139.748;2023-07-13T01:27:25;100464.28;;;33.58;36.79
64115;BME280;62188;35.640;139.748;2023-07-13T01:29:50;100471.94;;;33.86;36.79
64115;BME280;62188;35.640;139.748;2023-07-13T01:32:17;100477.59;;;34.04;36.32
64115;BME280;62188;35.640;139.748;2023-07-13T01:34:40;100482.01;;;34.12;35.99
64115;BME280;62188;35.640;139.748;2023-07-13T01:37:06;100488.65;;;33.94;35.83
64115;BME280;62188;35.640;139.748;2023-07-13T01:39:31;100492.09;;;34.25;35.87
64115;BME280;62188;35.640;139.748;2023-07-13T01:41:55;100489.97;;;34.31;35.86
64115;BME280;62188;35.640;139.748;2023-07-13T01:44:21;100483.11;;;34.34;35.24
64115;BME280;62188;35.640;139.748;2023-07-13T01:46:46;100477.91;;;34.38;34.89
64115;BME280;62188;35.640;139.748;2023-07-13T01:49:12;100479.80;;;34.18;34.82
64115;BME280;62188;35.640;139.748;2023-07-13T01:51:37;100487.58;;;34.38;34.47
64115;BME280;62188;35.640;139.748;2023-07-13T01:54:02;100489.27;;;34.09;34.49
64115;BME280;62188;35.640;139.748;2023-07-13T01:56:27;100488.05;;;33.99;34.52
64115;BME280;62188;35.640;139.748;2023-07-13T01:58:53;100487.67;;;33.91;34.29
64115;BME280;62188;35.640;139.748;2023-07-13T02:01:18;100487.99;;;33.87;34.45
64115;BME280;62188;35.640;139.748;2023-07-13T02:03:43;100488.43;;;34.00;34.14
64115;BME280;62188;35.640;139.748;2023-07-13T02:06:09;100487.09;;;33.68;34.20
64115;BME280;62188;35.640;139.748;2023-07-13T02:08:35;100491.84;;;33.77;34.04
64115;BME280;62188;35.640;139.748;2023-07-13T02:10:59;100496.30;;;33.81;34.25
64115;BME280;62188;35.640;139.748;2023-07-13T02:13:24;100497.74;;;33.81;34.15
64115;BME280;62188;35.640;139.748;2023-07-13T02:15:51;100499.63;;;33.82;34.15
64115;BME280;62188;35.640;139.748;2023-07-13T02:18:15;100493.07;;;33.73;34.24
64115;BME280;62188;35.640;139.748;2023-07-13T02:20:41;100488.88;;;33.66;34.24
64115;BME280;62188;35.640;139.748;2023-07-13T02:23:06;100479.03;;;33.73;34.28
64115;BME280;62188;35.640;139.748;2023-07-13T02:25:31;100474.91;;;33.80;34.60
64115;BME280;62188;35.640;139.748;2023-07-13T02:27:56;100470.07;;;33.40;34.42
64115;BME280;62188;35.640;139.748;2023-07-13T02:30:22;100466.70;;;33.75;34.67
64115;BME280;62188;35.640;139.748;2023-07-13T02:32:47;100464.16;;;33.53;34.70
64115;BME280;62188;35.640;139.748;2023-07-13T02:35:13;100454.20;;;33.53;34.72
64115;BME280;62188;35.640;139.748;2023-07-13T02:37:38;100446.77;;;33.57;34.65
64115;BME280;62188;35.640;139.748;2023-07-13T02:40:04;100443.37;;;33.60;34.59
64115;BME280;62188;35.640;139.748;2023-07-13T02:42:28;100443.48;;;33.65;34.65
64115;BME280;62188;35.640;139.748;2023-07-13T02:44:54;100443.18;;;33.70;34.62
64115;BME280;62188;35.640;139.748;2023-07-13T02:47:20;100442.01;;;33.72;34.53
64115;BME280;62188;35.640;139.748;2023-07-13T02:49:45;100439.16;;;33.74;34.68
64115;BME280;62188;35.640;139.748;2023-07-13T02:52:10;100437.18;;;33.57;34.77
64115;BME280;62188;35.640;139.748;2023-07-13T02:54:35;100431.39;;;33.62;34.66
64115;BME280;62188;35.640;139.748;2023-07-13T02:57:00;100427.86;;;33.90;34.61
64115;BME280;62188;35.640;139.748;2023-07-13T02:59:26;100419.90;;;33.91;34.58
64115;BME280;62188;35.640;139.748;2023-07-13T03:01:51;100419.60;;;33.88;34.36
64115;BME280;62188;35.640;139.748;2023-07-13T03:04:16;100414.12;;;33.84;34.36
64115;BME280;62188;35.640;139.748;2023-07-13T03:06:42;100412.36;;;33.86;34.46
64115;BME280;62188;35.640;139.748;2023-07-13T03:09:07;100413.54;;;33.92;34.46
64115;BME280;62188;35.640;139.748;2023-07-13T03:11:32;100411.24;;;33.92;34.50
64115;BME280;62188;35.640;139.748;2023-07-13T03:13:58;100404.89;;;33.90;34.24
64115;BME280;62188;35.640;139.748;2023-07-13T03:16:22;100407.06;;;33.88;34.30
64115;BME280;62188;35.640;139.748;2023-07-13T03:18:48;100404.69;;;33.82;33.98
64115;BME280;62188;35.640;139.748;2023-07-13T03:21:13;100394.16;;;33.61;33.72
64115;BME280;62188;35.640;139.748;2023-07-13T03:23:38;100387.73;;;33.42;33.77
64115;BME280;62188;35.640;139.748;2023-07-13T03:26:05;100381.35;;;33.36;33.99
64115;BME280;62188;35.640;139.748;2023-07-13T03:28:29;100375.62;;;33.35;33.80
64115;BME280;62188;35.640;139.748;2023-07-13T03:31:00;100375.08;;;33.62;34.10
64115;BME280;62188;35.640;139.748;2023-07-13T03:33:20;100377.66;;;33.37;34.15
64115;BME280;62188;35.640;139.748;2023-07-13T03:35:45;100377.20;;;33.32;33.80
64115;BME280;62188;35.640;139.748;2023-07-13T03:38:10;100376.41;;;33.33;33.75
64115;BME280;62188;35.640;139.748;2023-07-13T03:40:35;100373.24;;;33.59;33.96
64115;BME280;62188;35.640;139.748;2023-07-13T03:43:00;100369.60;;;33.40;34.08
64115;BME280;62188;35.640;139.748;2023-07-13T03:45:26;100364.56;;;33.67;34.26
64115;BME280;62188;35.640;139.748;2023-07-13T03:47:51;100363.57;;;33.45;34.03
64115;BME280;62188;35.640;139.748;2023-07-13T03:50:16;100364.44;;;33.47;34.13
64115;BME280;62188;35.640;139.748;2023-07-13T03:52:42;100373.47;;;33.44;34.14
64115;BME280;62188;35.640;139.748;2023-07-13T03:55:08;100373.50;;;33.42;34.12
64115;BME280;62188;35.640;139.748;2023-07-13T03:57:32;100376.13;;;33.46;34.29
64115;BME280;62188;35.640;139.748;2023-07-13T03:59:58;100380.02;;;33.11;34.37
64115;BME280;62188;35.640;139.748;2023-07-13T04:02:23;100379.65;;;33.05;34.60
64115;BME280;62188;35.640;139.748;2023-07-13T04:04:48;100377.94;;;33.28;34.64
64115;BME280;62188;35.640;139.748;2023-07-13T04:07:14;100377.86;;;33.27;34.93
64115;BME280;62188;35.640;139.748;2023-07-13T04:09:39;100381.79;;;33.15;34.93
64115;BME280;62188;35.640;139.748;2023-07-13T04:12:05;100381.14;;;32.65;35.35
64115;BME280;62188;35.640;139.748;2023-07-13T04:14:29;100377.68;;;32.77;35.43
64115;BME280;62188;35.640;139.748;2023-07-13T04:16:55;100377.09;;;32.74;35.57
64115;BME280;62188;35.640;139.748;2023-07-13T04:19:21;100377.33;;;32.99;35.89
64115;BME280;62188;35.640;139.748;2023-07-13T04:21:46;100370.99;;;32.72;35.81
64115;BME280;62188;35.640;139.748;2023-07-13T04:24:11;100361.74;;;33.06;35.91
64115;BME280;62188;35.640;139.748;2023-07-13T04:26:36;100362.07;;;32.83;35.61
64115;BME280;62188;35.640;139.748;2023-07-13T04:29:02;100366.11;;;32.62;35.62
64115;BME280;62188;35.640;139.748;2023-07-13T04:31:28;100368.37;;;32.60;35.66
64115;BME280;62188;35.640;139.748;2023-07-13T04:33:53;100359.60;;;32.77;35.94
64115;BME280;62188;35.640;139.748;2023-07-13T04:36:19;100355.72;;;32.79;36.38
64115;BME280;62188;35.640;139.748;2023-07-13T04:38:44;100356.03;;;33.01;36.62
64115;BME280;62188;35.640;139.748;2023-07-13T04:41:10;100347.49;;;32.87;36.79
64115;BME280;62188;35.640;139.748;2023-07-13T04:43:35;100353.05;;;32.96;36.89
64115;BME280;62188;35.640;139.748;2023-07-13T04:46:04;100362.81;;;32.70;36.76
64115;BME280;62188;35.640;139.748;2023-07-13T04:48:26;100369.61;;;32.92;36.36
64115;BME280;62188;35.640;139.748;2023-07-13T04:50:55;100384.01;;;32.85;37.11
64115;BME280;62188;35.640;139.748;2023-07-13T04:53:15;100390.82;;;32.81;37.75
64115;BME280;62188;35.640;139.748;2023-07-13T04:55:41;100404.87;;;32.56;38.57
64115;BME280;62188;35.640;139.748;2023-07-13T04:58:06;100406.93;;;32.38;38.72
64115;BME280;62188;35.640;139.748;2023-07-13T05:00:32;100403.45;;;32.48;38.89
64115;BME280;62188;35.640;139.748;2023-07-13T05:02:57;100404.77;;;32.15;39.19
64115;BME280;62188;35.640;139.748;2023-07-13T05:05:22;100407.61;;;32.37;39.03
64115;BME280;62188;35.640;139.748;2023-07-13T05:07:47;100413.45;;;32.63;39.10
64115;BME280;62188;35.640;139.748;2023-07-13T05:10:13;100410.20;;;32.17;39.00
64115;BME280;62188;35.640;139.748;2023-07-13T05:12:38;100402.72;;;32.24;38.89
64115;BME280;62188;35.640;139.748;2023-07-13T05:15:04;100401.32;;;32.39;38.84
64115;BME280;62188;35.640;139.748;2023-07-13T05:17:30;100400.07;;;32.53;38.60
64115;BME280;62188;35.640;139.748;2023-07-13T05:19:54;100394.61;;;32.56;38.69
64115;BME280;62188;35.640;139.748;2023-07-13T05:22:20;100395.37;;;32.85;38.15
64115;BME280;62188;35.640;139.748;2023-07-13T05:24:44;100394.33;;;32.64;38.27
64115;BME280;62188;35.640;139.748;2023-07-13T05:27:10;100399.08;;;32.74;38.10
64115;BME280;62188;35.640;139.748;2023-07-13T05:29:35;100393.72;;;32.70;38.05
64115;BME280;62188;35.640;139.748;2023-07-13T05:32:00;100394.20;;;33.02;37.57
64115;BME280;62188;35.640;139.748;2023-07-13T05:34:26;100399.64;;;32.60;37.25
64115;BME280;62188;35.640;139.748;2023-07-13T05:36:51;100398.91;;;32.92;37.03
64115;BME280;62188;35.640;139.748;2023-07-13T05:39:18;100397.80;;;32.89;36.64
64115;BME280;62188;35.640;139.748;2023-07-13T05:41:42;100398.40;;;33.05;36.38
64115;BME280;62188;35.640;139.748;2023-07-13T05:44:07;100401.90;;;32.78;36.54
64115;BME280;62188;35.640;139.748;2023-07-13T05:46:32;100402.99;;;33.14;36.47
64115;BME280;62188;35.640;139.748;2023-07-13T05:48:58;100408.95;;;32.94;36.10
64115;BME280;62188;35.640;139.748;2023-07-13T05:51:23;100410.61;;;32.94;36.00
64115;BME280;62188;35.640;139.748;2023-07-13T05:53:49;100417.16;;;32.97;35.73
64115;BME280;62188;35.640;139.748;2023-07-13T05:56:14;100423.48;;;32.75;35.56
64115;BME280;62188;35.640;139.748;2023-07-13T05:58:39;100423.85;;;33.03;35.69
64115;BME280;62188;35.640;139.748;2023-07-13T06:01:07;100429.08;;;33.27;35.38
64115;BME280;62188;35.640;139.748;2023-07-13T06:03:29;100428.50;;;33.05;35.31
64115;BME280;62188;35.640;139.748;2023-07-13T06:05:55;100427.75;;;33.11;35.31
64115;BME280;62188;35.640;139.748;2023-07-13T06:08:20;100429.86;;;33.30;35.89
64115;BME280;62188;35.640;139.748;2023-07-13T06:10:46;100436.21;;;33.09;35.82
64115;BME280;62188;35.640;139.748;2023-07-13T06:13:10;100439.23;;;32.87;35.75
64115;BME280;62188;35.640;139.748;2023-07-13T06:15:36;100440.11;;;33.03;35.75
64115;BME280;62188;35.640;139.748;2023-07-13T06:18:01;100437.43;;;32.78;35.62
64115;BME280;62188;35.640;139.748;2023-07-13T06:20:27;100431.36;;;33.04;35.53
64115;BME280;62188;35.640;139.748;2023-07-13T06:22:52;100424.39;;;33.03;35.19
64115;BME280;62188;35.640;139.748;2023-07-13T06:25:17;100417.60;;;33.05;35.12
64115;BME280;62188;35.640;139.748;2023-07-13T06:27:43;100419.26;;;33.36;35.28
64115;BME280;62188;35.640;139.748;2023-07-13T06:30:09;100419.45;;;33.20;35.21
64115;BME280;62188;35.640;139.748;2023-07-13T06:32:33;100417.65;;;32.97;35.32
64115;BME280;62188;35.640;139.748;2023-07-13T06:34:58;100417.14;;;33.21;35.13
64115;BME280;62188;35.640;139.748;2023-07-13T06:37:23;100410.45;;;33.00;34.98
64115;BME280;62188;35.640;139.748;2023-07-13T06:39:49;100411.79;;;33.23;35.06
64115;BME280;62188;35.640;139.748;2023-07-13T06:42:15;100404.99;;;32.94;35.19
64115;BME280;62188;35.640;139.748;2023-07-13T06:44:40;100403.09;;;33.10;35.32
64115;BME280;62188;35.640;139.748;2023-07-13T06:47:05;100407.68;;;32.85;35.51
64115;BME280;62188;35.640;139.748;2023-07-13T06:49:30;100413.65;;;32.76;35.72
64115;BME280;62188;35.640;139.748;2023-07-13T06:51:56;100415.39;;;33.23;35.94
64115;BME280;62188;35.640;139.748;2023-07-13T06:54:21;100418.08;;;33.06;35.90
64115;BME280;62188;35.640;139.748;2023-07-13T06:56:46;100419.27;;;33.00;35.84
64115;BME280;62188;35.640;139.748;2023-07-13T06:59:11;100419.81;;;32.72;36.01
64115;BME280;62188;35.640;139.748;2023-07-13T07:01:37;100422.20;;;33.01;36.05
64115;BME280;62188;35.640;139.748;2023-07-13T07:04:02;100418.78;;;33.18;36.00
64115;BME280;62188;35.640;139.748;2023-07-13T07:06:27;100412.96;;;33.05;35.90
64115;BME280;62188;35.640;139.748;2023-07-13T07:08:53;100406.78;;;32.73;35.90
64115;BME280;62188;35.640;139.748;2023-07-13T07:11:21;100406.41;;;33.02;36.01
64115;BME280;62188;35.640;139.748;2023-07-13T07:13:43;100407.00;;;33.10;35.90
64115;BME280;62188;35.640;139.748;2023-07-13T07:16:08;100407.76;;;32.77;35.94
64115;BME280;62188;35.640;139.748;2023-07-13T07:18:34;100414.40;;;32.71;36.01
64115;BME280;62188;35.640;139.748;2023-07-13T07:20:59;100414.32;;;32.99;36.02
64115;BME280;62188;35.640;139.748;2023-07-13T07:23:24;100419.57;;;32.81;36.09
64115;BME280;62188;35.640;139.748;2023-07-13T07:25:49;100420.45;;;32.53;36.23
64115;BME280;62188;35.640;139.748;2023-07-13T07:28:16;100418.39;;;32.53;36.15
64115;BME280;62188;35.640;139.748;2023-07-13T07:30:44;100409.02;;;32.66;36.02
64115;BME280;62188;35.640;139.748;2023-07-13T07:33:05;100408.51;;;32.66;36.09
64115;BME280;62188;35.640;139.748;2023-07-13T07:35:30;100411.31;;;32.70;36.17
64115;BME280;62188;35.640;139.748;2023-07-13T07:37:56;100413.35;;;32.71;36.08
64115;BME280;62188;35.640;139.748;2023-07-13T07:40:22;100415.59;;;32.51;36.30
64115;BME280;62188;35.640;139.748;2023-07-13T07:42:47;100416.20;;;32.48;36.37
64115;BME280;62188;35.640;139.748;2023-07-13T07:45:12;100413.84;;;32.50;36.47
64115;BME280;62188;35.640;139.748;2023-07-13T07:47:37;100410.60;;;32.34;36.76
64115;BME280;62188;35.640;139.748;2023-07-13T07:50:03;100411.36;;;32.29;36.92
64115;BME280;62188;35.640;139.748;2023-07-13T07:52:28;100420.17;;;32.41;36.93
64115;BME280;62188;35.640;139.748;2023-07-13T07:54:54;100420.64;;;32.44;36.97
64115;BME280;62188;35.640;139.748;2023-07-13T07:57:19;100423.19;;;32.54;37.01
64115;BME280;62188;35.640;139.748;2023-07-13T07:59:44;100426.91;;;32.47;36.93
64115;BME280;62188;35.640;139.748;2023-07-13T08:02:11;100431.43;;;32.76;36.91
64115;BME280;62188;35.640;139.748;2023-07-13T08:04:35;100437.62;;;32.83;36.88
64115;BME280;62188;35.640;139.748;2023-07-13T08:07:00;100441.33;;;32.89;36.91
64115;BME280;62188;35.640;139.748;2023-07-13T08:09:25;100446.13;;;32.93;37.06
64115;BME280;62188;35.640;139.748;2023-07-13T08:11:51;100444.40;;;32.79;37.15
64115;BME280;62188;35.640;139.748;2023-07-13T08:14:16;100438.81;;;32.66;37.34
64115;BME280;62188;35.640;139.748;2023-07-13T08:16:42;100438.33;;;32.64;37.11
64115;BME280;62188;35.640;139.748;2023-07-13T08:19:06;100442.89;;;32.41;37.31
64115;BME280;62188;35.640;139.748;2023-07-13T08:21:32;100442.61;;;32.93;37.22
64115;BME280;62188;35.640;139.748;2023-07-13T08:23:57;100439.72;;;32.62;37.13
64115;BME280;62188;35.640;139.748;2023-07-13T08:26:22;100440.93;;;32.81;37.05
64115;BME280;62188;35.640;139.748;2023-07-13T08:28:48;100450.33;;;32.62;37.11
64115;BME280;62188;35.640;139.748;2023-07-13T08:31:13;100459.51;;;32.67;37.05
64115;BME280;62188;35.640;139.748;2023-07-13T08:33:39;100461.68;;;32.42;37.01
64115;BME280;62188;35.640;139.748;2023-07-13T08:36:04;100458.93;;;32.63;37.09
64115;BME280;62188;35.640;139.748;2023-07-13T08:38:29;100465.78;;;32.67;37.06
64115;BME280;62188;35.640;139.748;2023-07-13T08:40:56;100474.92;;;32.65;37.03
64115;BME280;62188;35.640;139.748;2023-07-13T08:43:25;100476.48;;;32.56;37.13
64115;BME280;62188;35.640;139.748;2023-07-13T08:45:49;100476.90;;;32.59;37.22
64115;BME280;62188;35.640;139.748;2023-07-13T08:48:13;100477.27;;;32.41;37.25
64115;BME280;62188;35.640;139.748;2023-07-13T08:50:38;100475.63;;;32.66;37.19
64115;BME280;62188;35.640;139.748;2023-07-13T08:53:03;100474.51;;;32.73;37.30
64115;BME280;62188;35.640;139.748;2023-07-13T08:55:31;100469.85;;;32.72;37.20
64115;BME280;62188;35.640;139.748;2023-07-13T08:57:56;100469.85;;;32.45;37.08
64115;BME280;62188;35.640;139.748;2023-07-13T09:00:19;100476.23;;;32.73;37.19
64115;BME280;62188;35.640;139.748;2023-07-13T09:02:49;100483.15;;;32.23;36.91
64115;BME280;62188;35.640;139.748;2023-07-13T09:05:13;100483.20;;;32.76;36.90
64115;BME280;62188;35.640;139.748;2023-07-13T09:07:45;100483.71;;;32.52;36.82
64115;BME280;62188;35.640;139.748;2023-07-13T09:10:09;100478.71;;;32.58;36.76
64115;BME280;62188;35.640;139.748;2023-07-13T09:12:31;100481.83;;;32.90;36.74
64115;BME280;62188;35.640;139.748;2023-07-13T09:14:53;100490.97;;;32.68;36.63
64115;BME280;62188;35.640;139.748;2023-07-13T09:17:19;100496.50;;;32.93;36.57
64115;BME280;62188;35.640;139.748;2023-07-13T09:19:42;100498.91;;;32.97;36.46
64115;BME280;62188;35.640;139.748;2023-07-13T09:22:10;100500.44;;;32.66;36.49
64115;BME280;62188;35.640;139.748;2023-07-13T09:24:37;100506.43;;;32.28;36.62
64115;BME280;62188;35.640;139.748;2023-07-13T09:26:57;100510.80;;;32.27;36.64
64115;BME280;62188;35.640;139.748;2023-07-13T09:29:27;100505.53;;;32.76;36.73
64115;BME280;62188;35.640;139.748;2023-07-13T09:31:53;100500.92;;;32.83;36.79
64115;BME280;62188;35.640;139.748;2023-07-13T09:34:14;100508.16;;;32.62;36.73
64115;BME280;62188;35.640;139.748;2023-07-13T09:36:38;100509.55;;;32.59;36.57
64115;BME280;62188;35.640;139.748;2023-07-13T09:39:18;100503.20;;;32.84;36.70
64115;BME280;62188;35.640;139.748;2023-07-13T09:41:37;100503.18;;;32.75;36.93
64115;BME280;62188;35.640;139.748;2023-07-13T09:46:22;100510.36;;;32.57;36.87
64115;BME280;62188;35.640;139.748;2023-07-13T09:48:45;100513.74;;;32.59;36.92
64115;BME280;62188;35.640;139.748;2023-07-13T09:51:14;100516.71;;;32.63;36.84
64115;BME280;62188;35.640;139.748;2023-07-13T09:53:35;100521.25;;;32.61;36.79
64115;BME280;62188;35.640;139.748;2023-07-13T09:56:00;100517.31;;;32.80;37.00
64115;BME280;62188;35.640;139.748;2023-07-13T09:58:30;100515.57;;;32.46;36.89
64115;BME280;62188;35.640;139.748;2023-07-13T10:00:57;100513.65;;;32.64;36.89
64115;BME280;62188;35.640;139.748;2023-07-13T10:03:20;100518.37;;;32.52;37.04
64115;BME280;62188;35.640;139.748;2023-07-13T10:05:44;100512.10;;;32.54;37.02
64115;BME280;62188;35.640;139.748;2023-07-13T10:10:32;100504.62;;;32.38;37.03
64115;BME280;62188;35.640;139.748;2023-07-13T10:12:57;100500.72;;;32.69;37.01
64115;BME280;62188;35.640;139.748;2023-07-13T10:15:24;100491.53;;;32.63;37.06
64115;BME280;62188;35.640;139.748;2023-07-13T10:17:49;100488.98;;;32.64;37.05
64115;BME280;62188;35.640;139.748;2023-07-13T10:20:14;100490.02;;;32.63;37.17
64115;BME280;62188;35.640;139.748;2023-07-13T10:22:44;100498.44;;;32.24;37.24
64115;BME280;62188;35.640;139.748;2023-07-13T10:27:34;100511.39;;;32.43;37.42
64115;BME280;62188;35.640;139.748;2023-07-13T10:29:59;100516.28;;;32.34;37.44
64115;BME280;62188;35.640;139.748;2023-07-13T10:32:22;100524.90;;;32.25;37.51
64115;BME280;62188;35.640;139.748;2023-07-13T10:34:47;100535.17;;;32.21;37.53
64115;BME280;62188;35.640;139.748;2023-07-13T10:37:16;100533.71;;;32.19;37.60
64115;BME280;62188;35.640;139.748;2023-07-13T10:39:36;100525.76;;;32.20;37.63
64115;BME280;62188;35.640;139.748;2023-07-13T10:42:04;100534.77;;;32.52;37.56
64115;BME280;62188;35.640;139.748;2023-07-13T10:44:28;100541.25;;;32.24;37.57
64115;BME280;62188;35.640;139.748;2023-07-13T10:46:53;100535.38;;;32.24;37.65
64115;BME280;62188;35.640;139.748;2023-07-13T10:49:18;100529.01;;;32.37;37.56
64115;BME280;62188;35.640;139.748;2023-07-13T10:51:42;100532.33;;;32.66;37.52
64115;BME280;62188;35.640;139.748;2023-07-13T10:54:18;100535.65;;;32.72;37.44
64115;BME280;62188;35.640;139.748;2023-07-13T10:56:32;100548.73;;;32.25;37.33
64115;BME280;62188;35.640;139.748;2023-07-13T10:59:12;100552.62;;;32.51;37.22
64115;BME280;62188;35.640;139.748;2023-07-13T11:01:25;100547.56;;;32.51;37.10
64115;BME280;62188;35.640;139.748;2023-07-13T11:03:54;100544.61;;;32.57;37.25
64115;BME280;62188;35.640;139.748;2023-07-13T11:06:18;100550.29;;;32.36;37.02
64115;BME280;62188;35.640;139.748;2023-07-13T11:13:54;100552.68;;;32.48;37.18
64115;BME280;62188;35.640;139.748;2023-07-13T11:15:55;100555.56;;;32.44;37.29
64115;BME280;62188;35.640;139.748;2023-07-13T11:18:23;100555.69;;;32.19;37.30
64115;BME280;62188;35.640;139.748;2023-07-13T11:20:46;100554.54;;;32.40;37.53
64115;BME280;62188;35.640;139.748;2023-07-13T11:25:37;100559.91;;;32.60;37.56
64115;BME280;62188;35.640;139.748;2023-07-13T11:28:16;100560.82;;;32.40;37.58
64115;BME280;62188;35.640;139.748;2023-07-13T11:30:34;100558.11;;;32.42;37.53
64115;BME280;62188;35.640;139.748;2023-07-13T11:33:07;100564.85;;;32.24;37.48
64115;BME280;62188;35.640;139.748;2023-07-13T11:35:23;100580.28;;;32.46;37.46
64115;BME280;62188;35.640;139.748;2023-07-13T11:37:45;100581.09;;;32.18;37.42
64115;BME280;62188;35.640;139.748;2023-07-13T11:40:15;100579.85;;;32.49;37.32
64115;BME280;62188;35.640;139.748;2023-07-13T11:42:36;100572.71;;;32.52;37.83
64115;BME280;62188;35.640;139.748;2023-07-13T11:45:00;100575.45;;;32.27;38.16
64115;BME280;62188;35.640;139.748;2023-07-13T11:47:26;100581.54;;;32.21;37.44
64115;BME280;62188;35.640;139.748;2023-07-13T11:49:53;100584.32;;;32.48;37.35
64115;BME280;62188;35.640;139.748;2023-07-13T11:52:18;100586.46;;;32.54;37.60
64115;BME280;62188;35.640;139.748;2023-07-13T11:54:50;100586.31;;;32.53;38.01
64115;BME280;62188;35.640;139.748;2023-07-13T11:57:17;100584.90;;;32.56;37.88
64115;BME280;62188;35.640;139.748;2023-07-13T11:59:36;100585.78;;;32.48;37.12
64115;BME280;62188;35.640;139.748;2023-07-13T12:01:58;100586.51;;;32.60;37.13
64115;BME280;62188;35.640;139.748;2023-07-13T12:04:26;100578.42;;;32.36;37.23
64115;BME280;62188;35.640;139.748;2023-07-13T12:06:55;100579.74;;;32.66;36.73
64115;BME280;62188;35.640;139.748;2023-07-13T12:09:14;100584.61;;;32.50;36.97
64115;BME280;62188;35.640;139.748;2023-07-13T12:11:40;100587.57;;;32.49;36.83
64115;BME280;62188;35.640;139.748;2023-07-13T12:14:04;100589.90;;;32.46;36.78
64115;BME280;62188;35.640;139.748;2023-07-13T12:16:31;100599.95;;;32.51;36.93
64115;BME280;62188;35.640;139.748;2023-07-13T12:18:56;100610.25;;;32.54;36.66
64115;BME280;62188;35.640;139.748;2023-07-13T12:21:23;100620.72;;;32.52;37.70
64115;BME280;62188;35.640;139.748;2023-07-13T12:23:47;100629.54;;;32.27;38.42
64115;BME280;62188;35.640;139.748;2023-07-13T12:26:12;100635.89;;;32.63;37.61
64115;BME280;62188;35.640;139.748;2023-07-13T12:28:37;100637.84;;;32.13;37.37
64115;BME280;62188;35.640;139.748;2023-07-13T12:31:03;100643.64;;;32.39;38.07
64115;BME280;62188;35.640;139.748;2023-07-13T12:33:30;100647.70;;;32.14;38.40